Avon, NC

1:23 AM EDT on April 02, 2015 (GMT -0400)
Avon, NC | | Change Station
CLOSE
Current Station
Personal Weather Station
Location: Avon, NC
Elevation: 40 ft
Nearby Weather Stations

Elev 40 ft 35.37 °N, 75.50 °W | Updated 2 days ago

Clear
Clear
47 °F
Feels Like 47 °F
N
3
Wind Variable Wind from ENE
Gusts mph

Today
High -- | Low -- °F
--% Chance of Precip.
Yesterday
High -- | Low -- °F
Precip. -- in
6:47 AM 7:24 PM
Waxing Gibbous, 95% visible
Pressure 30.31 in
Visibility 10.0 miles
Clouds Clear
Dew Point 31 °F
Humidity 52%
Rainfall in
Snow Depth Not available.
UV 0 out of 12
Pollen 10.20 out of 12
Air Quality Not available.
Flu Activity Not available.
METAR KHSE 020451Z AUTO 08003KT 10SM CLR 03/M02 A3031 RMK AO2 SLP263 T00281017 401670028 TSNO

More Conditions Fewer Conditions

Pressure 30.31 in
Visibility 10.0 miles
Clouds Clear
Dew Point 31 °F
Humidity 52%
Rainfall in
Snow Depth Not available.
UV 0 out of 12
Pollen 10.20 out of 12
Air Quality Not available.
Flu Activity Not available.
METAR KHSE 020451Z AUTO 08003KT 10SM CLR 03/M02 A3031 RMK AO2 SLP263 T00281017 401670028 TSNO

More Conditions Fewer Conditions

10-Day Weather Forecast

Almanac

Astronomy

Apr. 02, 2015 Rise Set
Actual Time
Civil Twilight
Nautical Twilight
Astronomical Twilight
Moon
Length of Visible Light
Length of Day
Tomorrow will be .
, % of the Moon is Illuminated

Today's Extremes

State Highs State Lows

Community

WunderPhotos

Upload Photos

1,810,201 photos uploaded!

WunderBlogs® & News

Nearby

Air Quality

  Air Quality AQ Index Pollutant
Not available.

Snow Depth

Station Depth Elevation

Earthquake Activity

City Distance Mag. Time & Date
Minimum magnitude displayed is 2.5.

Coastal Water Temperatures

Place Temperature

Stations

Nearby Weather Stations

Station Location Temp. Windchill Dew Point Humidity Wind Precip. Elev Updated Type